sensor_id;sensor_type;location;lat;lon;timestamp;pressure;altitude;pressure_sealevel;temperature;humidity
19890;BME280;10107;51.198;6.824;2023-04-23T00:00:39;-21593.25;;;10.45;100.00
19890;BME280;10107;51.198;6.824;2023-04-23T00:04:48;-21592.72;;;10.43;100.00
19890;BME280;10107;51.198;6.824;2023-04-23T00:08:56;-21592.34;;;10.41;100.00
19890;BME280;10107;51.198;6.824;2023-04-23T00:13:00;-21591.66;;;10.39;100.00
19890;BME280;10107;51.198;6.824;2023-04-23T00:17:02;-21591.53;;;10.38;100.00
19890;BME280;10107;51.198;6.824;2023-04-23T00:21:04;-21591.53;;;10.38;100.00
19890;BME280;10107;51.198;6.824;2023-04-23T00:25:10;-21590.59;;;10.35;100.00
19890;BME280;10107;51.198;6.824;2023-04-23T00:29:11;-21590.06;;;10.33;100.00
19890;BME280;10107;51.198;6.824;2023-04-23T00:33:13;-21589.41;;;10.30;100.00
19890;BME280;10107;51.198;6.824;2023-04-23T00:37:15;-21589.69;;;10.31;100.00
19890;BME280;10107;51.198;6.824;2023-04-23T00:41:18;-21589.28;;;10.29;100.00
19890;BME280;10107;51.198;6.824;2023-04-23T00:45:20;-21588.75;;;10.27;100.00
19890;BME280;10107;51.198;6.824;2023-04-23T00:49:22;-21588.34;;;10.26;100.00
19890;BME280;10107;51.198;6.824;2023-04-23T00:53:25;-21587.81;;;10.24;100.00
19890;BME280;10107;51.198;6.824;2023-04-23T00:57:28;-21587.28;;;10.22;100.00
19890;BME280;10107;51.198;6.824;2023-04-23T01:01:31;-21587.16;;;10.21;100.00
19890;BME280;10107;51.198;6.824;2023-04-23T01:05:33;-21586.38;;;10.18;100.00
19890;BME280;10107;51.198;6.824;2023-04-23T01:09:35;-21584.91;;;10.13;100.00
19890;BME280;10107;51.198;6.824;2023-04-23T01:13:38;-21584.38;;;10.10;100.00
19890;BME280;10107;51.198;6.824;2023-04-23T01:17:39;-21583.97;;;10.09;100.00
19890;BME280;10107;51.198;6.824;2023-04-23T01:21:44;-21582.66;;;10.04;100.00
19890;BME280;10107;51.198;6.824;2023-04-23T01:25:47;-21581.06;;;9.98;100.00
19890;BME280;10107;51.198;6.824;2023-04-23T01:29:49;-21580.41;;;9.95;100.00
19890;BME280;10107;51.198;6.824;2023-04-23T01:33:52;-21578.94;;;9.89;100.00
19890;BME280;10107;51.198;6.824;2023-04-23T01:37:55;-21578.41;;;9.87;100.00
19890;BME280;10107;51.198;6.824;2023-04-23T01:42:00;-21576.94;;;9.82;100.00
19890;BME280;10107;51.198;6.824;2023-04-23T01:46:02;-21576.94;;;9.82;100.00
19890;BME280;10107;51.198;6.824;2023-04-23T01:50:05;-21576.41;;;9.80;100.00
19890;BME280;10107;51.198;6.824;2023-04-23T01:54:07;-21576.69;;;9.81;100.00
19890;BME280;10107;51.198;6.824;2023-04-23T01:58:10;-21575.88;;;9.78;100.00
19890;BME280;10107;51.198;6.824;2023-04-23T02:02:12;-21574.44;;;9.72;100.00
19890;BME280;10107;51.198;6.824;2023-04-23T02:06:14;-21573.38;;;9.68;100.00
19890;BME280;10107;51.198;6.824;2023-04-23T02:10:18;-21572.72;;;9.65;100.00
19890;BME280;10107;51.198;6.824;2023-04-23T02:14:21;-21571.66;;;9.61;100.00
19890;BME280;10107;51.198;6.824;2023-04-23T02:18:23;-21569.91;;;9.55;100.00
19890;BME280;10107;51.198;6.824;2023-04-23T02:22:25;-21568.59;;;9.49;100.00
19890;BME280;10107;51.198;6.824;2023-04-23T02:26:27;-21566.72;;;9.42;100.00
19890;BME280;10107;51.198;6.824;2023-04-23T02:30:30;-21565.00;;;9.36;100.00
19890;BME280;10107;51.198;6.824;2023-04-23T02:34:32;-21564.22;;;9.32;100.00
19890;BME280;10107;51.198;6.824;2023-04-23T02:38:34;-21562.88;;;9.27;100.00
19890;BME280;10107;51.198;6.824;2023-04-23T02:42:36;-21561.81;;;9.23;100.00
19890;BME280;10107;51.198;6.824;2023-04-23T02:46:40;-21561.81;;;9.23;100.00
19890;BME280;10107;51.198;6.824;2023-04-23T02:50:41;-21563.28;;;9.29;100.00
19890;BME280;10107;51.198;6.824;2023-04-23T02:54:45;-21564.75;;;9.35;100.00
19890;BME280;10107;51.198;6.824;2023-04-23T02:58:46;-21566.59;;;9.42;100.00
19890;BME280;10107;51.198;6.824;2023-04-23T03:02:50;-21569.25;;;9.52;100.00
19890;BME280;10107;51.198;6.824;2023-04-23T03:06:51;-21571.91;;;9.62;100.00
19890;BME280;10107;51.198;6.824;2023-04-23T03:10:53;-21572.97;;;9.66;100.00
19890;BME280;10107;51.198;6.824;2023-04-23T03:14:55;-21574.81;;;9.74;100.00
19890;BME280;10107;51.198;6.824;2023-04-23T03:19:01;-21575.63;;;9.77;100.00
19890;BME280;10107;51.198;6.824;2023-04-23T03:23:03;-21576.56;;;9.80;100.00
19890;BME280;10107;51.198;6.824;2023-04-23T03:27:05;-21576.56;;;9.80;100.00
19890;BME280;10107;51.198;6.824;2023-04-23T03:31:09;-21575.63;;;9.77;100.00
19890;BME280;10107;51.198;6.824;2023-04-23T03:35:12;-21573.91;;;9.70;100.00
19890;BME280;10107;51.198;6.824;2023-04-23T03:39:18;-21571.38;;;9.60;100.00
19890;BME280;10107;51.198;6.824;2023-04-23T03:43:25;-21569.13;;;9.51;100.00
19890;BME280;10107;51.198;6.824;2023-04-23T03:47:37;-21567.66;;;9.46;100.00
19890;BME280;10107;51.198;6.824;2023-04-23T03:51:40;-21566.59;;;9.42;100.00
19890;BME280;10107;51.198;6.824;2023-04-23T03:55:43;-21564.34;;;9.33;100.00
19890;BME280;10107;51.198;6.824;2023-04-23T03:59:45;-21562.88;;;9.27;100.00
19890;BME280;10107;51.198;6.824;2023-04-23T04:03:47;-21562.09;;;9.24;100.00
19890;BME280;10107;51.198;6.824;2023-04-23T04:07:52;-21561.56;;;9.22;100.00
19890;BME280;10107;51.198;6.824;2023-04-23T04:11:54;-21560.75;;;9.19;100.00
19890;BME280;10107;51.198;6.824;2023-04-23T04:15:55;-21560.50;;;9.18;100.00
19890;BME280;10107;51.198;6.824;2023-04-23T04:20:01;-21560.50;;;9.18;100.00
19890;BME280;10107;51.198;6.824;2023-04-23T04:24:04;-21561.28;;;9.21;100.00
19890;BME280;10107;51.198;6.824;2023-04-23T04:28:07;-21562.63;;;9.26;100.00
19890;BME280;10107;51.198;6.824;2023-04-23T04:32:08;-21565.41;;;9.37;100.00
19890;BME280;10107;51.198;6.824;2023-04-23T04:36:10;-21566.72;;;9.42;100.00
19890;BME280;10107;51.198;6.824;2023-04-23T04:40:14;-21569.00;;;9.51;100.00
19890;BME280;10107;51.198;6.824;2023-04-23T04:44:16;-21571.66;;;9.61;100.00
19890;BME280;10107;51.198;6.824;2023-04-23T04:48:18;-21574.28;;;9.71;100.00
19890;BME280;10107;51.198;6.824;2023-04-23T04:52:19;-21578.53;;;9.88;100.00
19890;BME280;10107;51.198;6.824;2023-04-23T04:56:22;-21582.53;;;10.03;100.00
19890;BME280;10107;51.198;6.824;2023-04-23T05:00:26;-21586.50;;;10.19;100.00
19890;BME280;10107;51.198;6.824;2023-04-23T05:04:28;-21588.63;;;10.27;100.00
19890;BME280;10107;51.198;6.824;2023-04-23T05:08:30;-21590.88;;;10.36;100.00
19890;BME280;10107;51.198;6.824;2023-04-23T05:12:34;-21593.25;;;10.45;100.00
19890;BME280;10107;51.198;6.824;2023-04-23T05:16:36;-21595.25;;;10.53;100.00
19890;BME280;10107;51.198;6.824;2023-04-23T05:20:38;-21597.63;;;10.62;100.00
19890;BME280;10107;51.198;6.824;2023-04-23T05:24:40;-21600.94;;;10.75;100.00
19890;BME280;10107;51.198;6.824;2023-04-23T05:28:43;-21602.41;;;10.80;100.00
19890;BME280;10107;51.198;6.824;2023-04-23T05:32:45;-21603.06;;;10.83;100.00
19890;BME280;10107;51.198;6.824;2023-04-23T05:36:47;-21604.13;;;10.87;100.00
19890;BME280;10107;51.198;6.824;2023-04-23T05:40:48;-21607.28;;;10.99;100.00
19890;BME280;10107;51.198;6.824;2023-04-23T05:44:51;-21608.63;;;11.04;100.00
19890;BME280;10107;51.198;6.824;2023-04-23T05:48:53;-21611.25;;;11.15;100.00
19890;BME280;10107;51.198;6.824;2023-04-23T05:52:55;-21611.94;;;11.17;100.00
19890;BME280;10107;51.198;6.824;2023-04-23T05:56:56;-21613.78;;;11.24;100.00
19890;BME280;10107;51.198;6.824;2023-04-23T06:00:59;-21616.94;;;11.37;100.00
19890;BME280;10107;51.198;6.824;2023-04-23T06:05:02;-21619.34;;;11.46;100.00
19890;BME280;10107;51.198;6.824;2023-04-23T06:09:04;-21623.03;;;11.60;100.00
19890;BME280;10107;51.198;6.824;2023-04-23T06:13:06;-21627.00;;;11.76;100.00
19890;BME280;10107;51.198;6.824;2023-04-23T06:17:09;-21632.56;;;11.97;100.00
19890;BME280;10107;51.198;6.824;2023-04-23T06:21:11;-21639.16;;;12.23;100.00
19890;BME280;10107;51.198;6.824;2023-04-23T06:25:12;-21648.69;;;12.60;100.00
19890;BME280;10107;51.198;6.824;2023-04-23T06:29:14;-21657.13;;;12.93;100.00
19890;BME280;10107;51.198;6.824;2023-04-23T06:33:40;-21661.59;;;13.10;100.00
19890;BME280;10107;51.198;6.824;2023-04-23T06:37:42;-21667.56;;;13.33;100.00
19890;BME280;10107;51.198;6.824;2023-04-23T06:41:44;-21669.53;;;13.41;100.00
19890;BME280;10107;51.198;6.824;2023-04-23T06:46:15;-21677.16;;;13.71;100.00
19890;BME280;10107;51.198;6.824;2023-04-23T06:50:18;-21677.56;;;13.72;100.00
19890;BME280;10107;51.198;6.824;2023-04-23T06:54:20;-21677.56;;;13.72;100.00
19890;BME280;10107;51.198;6.824;2023-04-23T06:58:23;-21679.81;;;13.81;100.00
19890;BME280;10107;51.198;6.824;2023-04-23T07:02:30;-21681.91;;;13.89;100.00
19890;BME280;10107;51.198;6.824;2023-04-23T07:06:33;-21687.84;;;14.12;100.00
19890;BME280;10107;51.198;6.824;2023-04-23T07:10:37;-21694.28;;;14.37;100.00
19890;BME280;10107;51.198;6.824;2023-04-23T07:14:39;-21711.66;;;15.05;100.00
19890;BME280;10107;51.198;6.824;2023-04-23T07:18:40;-21742.16;;;16.24;100.00
19890;BME280;10107;51.198;6.824;2023-04-23T07:22:44;-21760.38;;;16.95;100.00
19890;BME280;10107;51.198;6.824;2023-04-23T07:26:46;-21777.81;;;17.64;95.72
19890;BME280;10107;51.198;6.824;2023-04-23T07:30:48;-21798.72;;;18.46;88.21
19890;BME280;10107;51.198;6.824;2023-04-23T07:34:49;-21799.66;;;18.49;89.27
19890;BME280;10107;51.198;6.824;2023-04-23T07:38:53;-21856.94;;;20.74;76.56
19890;BME280;10107;51.198;6.824;2023-04-23T07:42:54;-21913.72;;;22.99;69.14
19890;BME280;10107;51.198;6.824;2023-04-23T07:46:58;-21940.41;;;24.04;61.49
19890;BME280;10107;51.198;6.824;2023-04-23T07:51:00;-21971.94;;;25.29;56.31
19890;BME280;10107;51.198;6.824;2023-04-23T07:55:04;-21997.34;;;26.31;52.33
19890;BME280;10107;51.198;6.824;2023-04-23T07:59:06;-22085.28;;;29.82;38.29
19890;BME280;10107;51.198;6.824;2023-04-23T08:03:09;-22152.91;;;32.54;32.43
19890;BME280;10107;51.198;6.824;2023-04-23T08:07:10;-22086.69;;;29.88;36.36
19890;BME280;10107;51.198;6.824;2023-04-23T08:11:14;-22055.56;;;28.63;38.50
19890;BME280;10107;51.198;6.824;2023-04-23T08:15:16;-22036.19;;;27.85;40.01
19890;BME280;10107;51.198;6.824;2023-04-23T08:19:20;-22053.00;;;28.53;38.32
19890;BME280;10107;51.198;6.824;2023-04-23T08:23:22;-22014.72;;;27.00;41.92
19890;BME280;10107;51.198;6.824;2023-04-23T08:27:25;-21940.25;;;24.04;48.68
19890;BME280;10107;51.198;6.824;2023-04-23T08:31:26;-21932.25;;;23.72;49.08
19890;BME280;10107;51.198;6.824;2023-04-23T08:35:28;-21902.41;;;22.54;51.71
19890;BME280;10107;51.198;6.824;2023-04-23T08:39:30;-21907.75;;;22.75;52.82
19890;BME280;10107;51.198;6.824;2023-04-23T08:43:37;-21934.06;;;23.79;49.29
19890;BME280;10107;51.198;6.824;2023-04-23T08:47:44;-21963.66;;;24.97;45.85
19890;BME280;10107;51.198;6.824;2023-04-23T08:51:49;-21994.75;;;26.20;43.53
19890;BME280;10107;51.198;6.824;2023-04-23T08:55:52;-22019.63;;;27.19;40.91
19890;BME280;10107;51.198;6.824;2023-04-23T08:59:56;-22011.13;;;26.85;39.90
19890;BME280;10107;51.198;6.824;2023-04-23T09:03:59;-21987.53;;;25.92;41.83
19890;BME280;10107;51.198;6.824;2023-04-23T09:08:01;-22030.41;;;27.62;38.84
19890;BME280;10107;51.198;6.824;2023-04-23T09:12:04;-21956.03;;;24.66;42.25
19890;BME280;10107;51.198;6.824;2023-04-23T09:16:07;-21914.09;;;23.00;46.78
19890;BME280;10107;51.198;6.824;2023-04-23T09:20:10;-21903.34;;;22.58;48.69
19890;BME280;10107;51.198;6.824;2023-04-23T09:24:12;-21918.25;;;23.17;46.25
19890;BME280;10107;51.198;6.824;2023-04-23T09:28:17;-21949.97;;;24.42;44.32
19890;BME280;10107;51.198;6.824;2023-04-23T09:32:30;-21906.06;;;22.68;47.32
19890;BME280;10107;51.198;6.824;2023-04-23T09:36:32;-21874.50;;;21.44;52.07
19890;BME280;10107;51.198;6.824;2023-04-23T09:40:35;-21908.38;;;22.78;50.03
19890;BME280;10107;51.198;6.824;2023-04-23T09:44:38;-21984.72;;;25.80;42.15
19890;BME280;10107;51.198;6.824;2023-04-23T09:48:41;-21995.94;;;26.25;39.63
19890;BME280;10107;51.198;6.824;2023-04-23T09:52:43;-21982.25;;;25.71;40.85
19890;BME280;10107;51.198;6.824;2023-04-23T09:56:48;-21979.28;;;25.59;41.51
19890;BME280;10107;51.198;6.824;2023-04-23T10:00:50;-21926.28;;;23.48;44.62
19890;BME280;10107;51.198;6.824;2023-04-23T10:04:54;-21887.63;;;21.95;50.05
19890;BME280;10107;51.198;6.824;2023-04-23T10:08:55;-21867.47;;;21.16;52.84
19890;BME280;10107;51.198;6.824;2023-04-23T10:12:58;-21882.56;;;21.75;51.51
19890;BME280;10107;51.198;6.824;2023-04-23T10:17:00;-21886.97;;;21.93;47.12
19890;BME280;10107;51.198;6.824;2023-04-23T10:21:05;-21877.22;;;21.54;47.58
19890;BME280;10107;51.198;6.824;2023-04-23T10:25:09;-21870.47;;;21.28;48.46
19890;BME280;10107;51.198;6.824;2023-04-23T10:29:13;-21876.84;;;21.53;47.84
19890;BME280;10107;51.198;6.824;2023-04-23T10:33:17;-21868.78;;;21.21;48.54
19890;BME280;10107;51.198;6.824;2023-04-23T10:37:23;-21858.75;;;20.82;49.36
19890;BME280;10107;51.198;6.824;2023-04-23T10:41:30;-21839.59;;;20.06;51.79
19890;BME280;10107;51.198;6.824;2023-04-23T10:45:34;-21830.34;;;19.70;51.25
19890;BME280;10107;51.198;6.824;2023-04-23T10:49:37;-21826.94;;;19.56;52.74
19890;BME280;10107;51.198;6.824;2023-04-23T10:53:40;-21837.00;;;19.96;51.25
19890;BME280;10107;51.198;6.824;2023-04-23T10:57:53;-21829.81;;;19.68;53.21
19890;BME280;10107;51.198;6.824;2023-04-23T11:01:56;-21827.19;;;19.57;51.82
19890;BME280;10107;51.198;6.824;2023-04-23T11:06:02;-21839.47;;;20.06;49.43
19890;BME280;10107;51.198;6.824;2023-04-23T11:10:11;-21856.00;;;20.71;46.64
19890;BME280;10107;51.198;6.824;2023-04-23T11:14:13;-21885.81;;;21.88;45.01
19890;BME280;10107;51.198;6.824;2023-04-23T11:18:15;-21924.72;;;23.42;41.04
19890;BME280;10107;51.198;6.824;2023-04-23T11:22:17;-21956.03;;;24.66;38.49
19890;BME280;10107;51.198;6.824;2023-04-23T11:26:26;-21929.00;;;23.59;38.02
19890;BME280;10107;51.198;6.824;2023-04-23T11:30:30;-21887.22;;;21.94;40.78
19890;BME280;10107;51.198;6.824;2023-04-23T11:34:33;-21877.22;;;21.54;43.96
19890;BME280;10107;51.198;6.824;2023-04-23T11:38:35;-21860.06;;;20.87;46.81
19890;BME280;10107;51.198;6.824;2023-04-23T11:42:43;-21845.19;;;20.28;46.44
19890;BME280;10107;51.198;6.824;2023-04-23T11:46:46;-21839.47;;;20.06;48.46
19890;BME280;10107;51.198;6.824;2023-04-23T11:50:48;-21874.75;;;21.45;44.41
19890;BME280;10107;51.198;6.824;2023-04-23T11:54:50;-21910.22;;;22.85;41.04
19890;BME280;10107;51.198;6.824;2023-04-23T11:58:59;-21938.47;;;23.97;39.21
19890;BME280;10107;51.198;6.824;2023-04-23T12:03:03;-21943.63;;;24.17;38.90
19890;BME280;10107;51.198;6.824;2023-04-23T12:07:05;-21923.16;;;23.36;39.42
19890;BME280;10107;51.198;6.824;2023-04-23T12:11:07;-21901.38;;;22.50;40.09
19890;BME280;10107;51.198;6.824;2023-04-23T12:15:11;-21901.00;;;22.48;41.11
19890;BME280;10107;51.198;6.824;2023-04-23T12:19:14;-21904.63;;;22.63;41.51
19890;BME280;10107;51.198;6.824;2023-04-23T12:23:17;-21920.59;;;23.26;39.31
19890;BME280;10107;51.198;6.824;2023-04-23T12:27:19;-21940.25;;;24.04;37.33
19890;BME280;10107;51.198;6.824;2023-04-23T12:31:25;-21924.84;;;23.43;36.53
19890;BME280;10107;51.198;6.824;2023-04-23T12:35:48;-21943.88;;;24.18;36.17
19890;BME280;10107;51.198;6.824;2023-04-23T12:39:50;-21957.72;;;24.73;34.28
19890;BME280;10107;51.198;6.824;2023-04-23T12:43:52;-21940.13;;;24.03;34.04
19890;BME280;10107;51.198;6.824;2023-04-23T12:47:55;-21933.16;;;23.76;35.23
19890;BME280;10107;51.198;6.824;2023-04-23T12:51:57;-21899.03;;;22.41;36.93
19890;BME280;10107;51.198;6.824;2023-04-23T12:56:00;-21890.59;;;22.07;38.46
19890;BME280;10107;51.198;6.824;2023-04-23T13:00:03;-21910.47;;;22.86;36.68
19890;BME280;10107;51.198;6.824;2023-04-23T13:04:07;-21884.38;;;21.83;38.53
19890;BME280;10107;51.198;6.824;2023-04-23T13:08:08;-21888.66;;;22.00;40.02
19890;BME280;10107;51.198;6.824;2023-04-23T13:12:10;-21896.44;;;22.30;38.96
19890;BME280;10107;51.198;6.824;2023-04-23T13:16:14;-21890.47;;;22.07;37.65
19890;BME280;10107;51.198;6.824;2023-04-23T13:20:19;-21882.03;;;21.73;39.81
19890;BME280;10107;51.198;6.824;2023-04-23T13:24:21;-21874.22;;;21.43;40.20
19890;BME280;10107;51.198;6.824;2023-04-23T13:28:23;-21875.66;;;21.48;40.40
19890;BME280;10107;51.198;6.824;2023-04-23T13:32:25;-21865.78;;;21.09;40.75
19890;BME280;10107;51.198;6.824;2023-04-23T13:36:32;-21870.47;;;21.28;40.43
19890;BME280;10107;51.198;6.824;2023-04-23T13:40:34;-21874.50;;;21.44;40.86
19890;BME280;10107;51.198;6.824;2023-04-23T13:44:37;-21862.00;;;20.94;41.43
19890;BME280;10107;51.198;6.824;2023-04-23T13:48:38;-21852.09;;;20.55;41.71
19890;BME280;10107;51.198;6.824;2023-04-23T13:52:42;-21846.50;;;20.33;42.21
19890;BME280;10107;51.198;6.824;2023-04-23T13:56:44;-21845.72;;;20.30;43.25
19890;BME280;10107;51.198;6.824;2023-04-23T14:00:45;-21843.13;;;20.20;43.60
19890;BME280;10107;51.198;6.824;2023-04-23T14:04:48;-21839.34;;;20.05;41.27
19890;BME280;10107;51.198;6.824;2023-04-23T14:08:51;-21835.81;;;19.91;41.69
19890;BME280;10107;51.198;6.824;2023-04-23T14:12:54;-21832.81;;;19.80;41.97
19890;BME280;10107;51.198;6.824;2023-04-23T14:16:57;-21831.91;;;19.76;41.77
19890;BME280;10107;51.198;6.824;2023-04-23T14:20:59;-21830.47;;;19.70;42.05
19890;BME280;10107;51.198;6.824;2023-04-23T14:25:09;-21827.72;;;19.59;42.36
19890;BME280;10107;51.198;6.824;2023-04-23T14:29:22;-21821.47;;;19.35;43.15
19890;BME280;10107;51.198;6.824;2023-04-23T14:33:25;-21818.72;;;19.24;43.48
19890;BME280;10107;51.198;6.824;2023-04-23T14:37:27;-21825.63;;;19.51;41.46
19890;BME280;10107;51.198;6.824;2023-04-23T14:41:30;-21827.72;;;19.59;41.22
19890;BME280;10107;51.198;6.824;2023-04-23T14:45:32;-21831.00;;;19.72;42.65
19890;BME280;10107;51.198;6.824;2023-04-23T14:49:34;-21831.78;;;19.75;41.42
19890;BME280;10107;51.198;6.824;2023-04-23T14:53:36;-21828.50;;;19.63;41.43
19890;BME280;10107;51.198;6.824;2023-04-23T14:57:40;-21815.34;;;19.11;41.76
19890;BME280;10107;51.198;6.824;2023-04-23T15:01:42;-21808.41;;;18.84;43.36
19890;BME280;10107;51.198;6.824;2023-04-23T15:05:44;-21801.59;;;18.57;45.38
19890;BME280;10107;51.198;6.824;2023-04-23T15:09:45;-21790.25;;;18.12;48.69
19890;BME280;10107;51.198;6.824;2023-04-23T15:13:55;-21782.13;;;17.80;54.62
19890;BME280;10107;51.198;6.824;2023-04-23T15:17:57;-21769.41;;;17.31;60.50
19890;BME280;10107;51.198;6.824;2023-04-23T15:21:58;-21757.50;;;16.84;65.09
19890;BME280;10107;51.198;6.824;2023-04-23T15:26:00;-21748.69;;;16.50;70.79
19890;BME280;10107;51.198;6.824;2023-04-23T15:30:04;-21738.88;;;16.11;78.18
19890;BME280;10107;51.198;6.824;2023-04-23T15:34:07;-21734.28;;;15.93;82.38
19890;BME280;10107;51.198;6.824;2023-04-23T15:38:10;-21729.94;;;15.76;83.33
19890;BME280;10107;51.198;6.824;2023-04-23T15:42:12;-21722.06;;;15.45;85.56
19890;BME280;10107;51.198;6.824;2023-04-23T15:46:18;-21717.19;;;15.27;87.52
19890;BME280;10107;51.198;6.824;2023-04-23T15:50:20;-21709.44;;;14.96;93.74
19890;BME280;10107;51.198;6.824;2023-04-23T15:54:26;-21705.34;;;14.80;96.19
19890;BME280;10107;51.198;6.824;2023-04-23T15:58:27;-21701.16;;;14.64;100.00
19890;BME280;10107;51.198;6.824;2023-04-23T16:02:30;-21696.28;;;14.45;100.00
19890;BME280;10107;51.198;6.824;2023-04-23T16:06:33;-21691.66;;;14.27;100.00
19890;BME280;10107;51.198;6.824;2023-04-23T16:10:37;-21688.50;;;14.15;100.00
19890;BME280;10107;51.198;6.824;2023-04-23T16:14:42;-21684.94;;;14.01;100.00
19890;BME280;10107;51.198;6.824;2023-04-23T16:18:45;-21680.19;;;13.82;100.00
19890;BME280;10107;51.198;6.824;2023-04-23T16:22:48;-21675.06;;;13.62;100.00
19890;BME280;10107;51.198;6.824;2023-04-23T16:26:50;-21673.47;;;13.56;100.00
19890;BME280;10107;51.198;6.824;2023-04-23T16:30:55;-21671.25;;;13.47;100.00
19890;BME280;10107;51.198;6.824;2023-04-23T16:34:58;-21671.38;;;13.48;100.00
19890;BME280;10107;51.198;6.824;2023-04-23T16:39:00;-21669.00;;;13.39;100.00
19890;BME280;10107;51.198;6.824;2023-04-23T16:43:02;-21667.69;;;13.34;100.00
19890;BME280;10107;51.198;6.824;2023-04-23T16:47:05;-21668.34;;;13.36;100.00
19890;BME280;10107;51.198;6.824;2023-04-23T16:51:08;-21667.56;;;13.33;100.00
19890;BME280;10107;51.198;6.824;2023-04-23T16:55:13;-21665.69;;;13.26;100.00
19890;BME280;10107;51.198;6.824;2023-04-23T16:59:17;-21662.28;;;13.13;100.00
19890;BME280;10107;51.198;6.824;2023-04-23T17:03:19;-21661.34;;;13.09;100.00
19890;BME280;10107;51.198;6.824;2023-04-23T17:07:22;-21660.81;;;13.07;100.00
19890;BME280;10107;51.198;6.824;2023-04-23T17:11:24;-21659.38;;;13.01;100.00
19890;BME280;10107;51.198;6.824;2023-04-23T17:15:26;-21659.09;;;13.00;100.00
19890;BME280;10107;51.198;6.824;2023-04-23T17:19:28;-21657.00;;;12.92;100.00
19890;BME280;10107;51.198;6.824;2023-04-23T17:23:31;-21656.59;;;12.91;100.00
19890;BME280;10107;51.198;6.824;2023-04-23T17:27:32;-21655.81;;;12.87;100.00
19890;BME280;10107;51.198;6.824;2023-04-23T17:31:34;-21654.63;;;12.83;100.00
19890;BME280;10107;51.198;6.824;2023-04-23T17:35:36;-21653.28;;;12.78;100.00
19890;BME280;10107;51.198;6.824;2023-04-23T17:39:39;-21652.25;;;12.74;100.00
19890;BME280;10107;51.198;6.824;2023-04-23T17:43:40;-21649.06;;;12.61;100.00
19890;BME280;10107;51.198;6.824;2023-04-23T17:47:42;-21648.53;;;12.59;100.00
19890;BME280;10107;51.198;6.824;2023-04-23T17:51:44;-21646.44;;;12.51;100.00
19890;BME280;10107;51.198;6.824;2023-04-23T17:55:47;-21644.19;;;12.42;100.00
19890;BME280;10107;51.198;6.824;2023-04-23T17:59:49;-21642.72;;;12.37;100.00
19890;BME280;10107;51.198;6.824;2023-04-23T18:03:50;-21642.88;;;12.37;100.00
19890;BME280;10107;51.198;6.824;2023-04-23T18:07:52;-21644.19;;;12.42;100.00
19890;BME280;10107;51.198;6.824;2023-04-23T18:11:56;-21643.00;;;12.38;100.00
19890;BME280;10107;51.198;6.824;2023-04-23T18:15:58;-21643.66;;;12.40;100.00
19890;BME280;10107;51.198;6.824;2023-04-23T18:20:00;-21643.66;;;12.40;100.00
19890;BME280;10107;51.198;6.824;2023-04-23T18:24:02;-21643.13;;;12.38;100.00
19890;BME280;10107;51.198;6.824;2023-04-23T18:28:05;-21643.41;;;12.39;100.00
19890;BME280;10107;51.198;6.824;2023-04-23T18:32:07;-21643.53;;;12.40;100.00
19890;BME280;10107;51.198;6.824;2023-04-23T18:36:19;-21643.66;;;12.40;100.00
19890;BME280;10107;51.198;6.824;2023-04-23T18:40:26;-21643.78;;;12.41;100.00
19890;BME280;10107;51.198;6.824;2023-04-23T18:44:29;-21644.97;;;12.45;100.00
19890;BME280;10107;51.198;6.824;2023-04-23T18:48:44;-21645.25;;;12.46;100.00
19890;BME280;10107;51.198;6.824;2023-04-23T18:52:46;-21645.13;;;12.46;100.00
19890;BME280;10107;51.198;6.824;2023-04-23T18:56:48;-21646.03;;;12.50;100.00
19890;BME280;10107;51.198;6.824;2023-04-23T19:00:52;-21645.78;;;12.48;100.00
19890;BME280;10107;51.198;6.824;2023-04-23T19:04:58;-21646.56;;;12.52;100.00
19890;BME280;10107;51.198;6.824;2023-04-23T19:09:00;-21644.72;;;12.44;100.00
19890;BME280;10107;51.198;6.824;2023-04-23T19:13:04;-21641.03;;;12.30;100.00
19890;BME280;10107;51.198;6.824;2023-04-23T19:17:17;-21638.78;;;12.21;100.00
19890;BME280;10107;51.198;6.824;2023-04-23T19:21:19;-21636.53;;;12.13;100.00
19890;BME280;10107;51.198;6.824;2023-04-23T19:25:21;-21635.72;;;12.09;100.00
19890;BME280;10107;51.198;6.824;2023-04-23T19:29:32;-21633.63;;;12.01;100.00
19890;BME280;10107;51.198;6.824;2023-04-23T19:33:41;-21632.31;;;11.96;100.00
19890;BME280;10107;51.198;6.824;2023-04-23T19:37:45;-21633.50;;;12.01;100.00
19890;BME280;10107;51.198;6.824;2023-04-23T19:41:49;-21633.63;;;12.01;100.00
19890;BME280;10107;51.198;6.824;2023-04-23T19:45:50;-21634.94;;;12.06;100.00
19890;BME280;10107;51.198;6.824;2023-04-23T19:49:53;-21635.59;;;12.09;100.00
19890;BME280;10107;51.198;6.824;2023-04-23T19:53:55;-21633.88;;;12.02;100.00
19890;BME280;10107;51.198;6.824;2023-04-23T19:57:57;-21632.31;;;11.96;100.00
19890;BME280;10107;51.198;6.824;2023-04-23T20:01:59;-21628.31;;;11.81;100.00
19890;BME280;10107;51.198;6.824;2023-04-23T20:06:12;-21624.63;;;11.66;100.00
19890;BME280;10107;51.198;6.824;2023-04-23T20:10:14;-21621.44;;;11.54;100.00
19890;BME280;10107;51.198;6.824;2023-04-23T20:14:16;-21619.06;;;11.45;100.00
19890;BME280;10107;51.198;6.824;2023-04-23T20:18:18;-21619.34;;;11.46;100.00
19890;BME280;10107;51.198;6.824;2023-04-23T20:22:22;-21620.13;;;11.49;100.00
19890;BME280;10107;51.198;6.824;2023-04-23T20:26:24;-21621.19;;;11.53;100.00
19890;BME280;10107;51.198;6.824;2023-04-23T20:30:29;-21621.72;;;11.55;100.00
19890;BME280;10107;51.198;6.824;2023-04-23T20:34:34;-21621.59;;;11.55;100.00
19890;BME280;10107;51.198;6.824;2023-04-23T20:38:38;-21621.97;;;11.56;100.00
19890;BME280;10107;51.198;6.824;2023-04-23T20:42:40;-21622.78;;;11.59;100.00
19890;BME280;10107;51.198;6.824;2023-04-23T20:46:42;-21622.66;;;11.59;100.00
19890;BME280;10107;51.198;6.824;2023-04-23T20:50:45;-21622.38;;;11.58;100.00
19890;BME280;10107;51.198;6.824;2023-04-23T20:54:48;-21623.03;;;11.60;100.00
19890;BME280;10107;51.198;6.824;2023-04-23T20:58:53;-21623.69;;;11.63;100.00
19890;BME280;10107;51.198;6.824;2023-04-23T21:02:57;-21624.38;;;11.65;100.00